createdAt,value
2018-01-21T00:00:41.185Z,1000.57
2018-01-21T00:01:41.183Z,1000.65
2018-01-21T00:02:41.185Z,1000.67
2018-01-21T00:03:41.167Z,1000.72
2018-01-21T00:04:41.177Z,1000.77
2018-01-21T00:05:41.186Z,1000.79
2018-01-21T00:06:41.182Z,1000.78
2018-01-21T00:07:41.171Z,1000.80
2018-01-21T00:08:41.148Z,1000.84
2018-01-21T00:09:41.164Z,1000.85
2018-01-21T00:10:41.142Z,1000.87
2018-01-21T00:11:41.146Z,1000.86
2018-01-21T00:12:41.135Z,1000.92
2018-01-21T00:13:41.131Z,1000.91
2018-01-21T00:14:41.135Z,1000.92
2018-01-21T00:15:41.122Z,1000.96
2018-01-21T00:16:41.127Z,1001.01
2018-01-21T00:17:41.111Z,1001.05
2018-01-21T00:18:41.116Z,1001.06
2018-01-21T00:19:41.123Z,1001.10
2018-01-21T00:20:41.119Z,1001.11
2018-01-21T00:21:41.115Z,1001.12
2018-01-21T00:22:41.091Z,1001.14
2018-01-21T00:23:41.087Z,1001.19
2018-01-21T00:24:41.097Z,1001.17
2018-01-21T00:25:41.082Z,1001.18
2018-01-21T00:26:41.086Z,1001.21
2018-01-21T00:27:41.077Z,1001.21
2018-01-21T00:28:41.094Z,1001.23
2018-01-21T00:29:41.070Z,1001.22
2018-01-21T00:30:41.061Z,1001.29
2018-01-21T00:31:41.056Z,1001.28
2018-01-21T00:32:41.062Z,1001.30
2018-01-21T00:33:41.063Z,1001.34
2018-01-21T00:34:41.052Z,1001.34
2018-01-21T00:35:41.054Z,1001.39
2018-01-21T00:36:41.037Z,1001.35
2018-01-21T00:37:41.042Z,1001.39
2018-01-21T00:38:41.031Z,1001.41
2018-01-21T00:39:41.034Z,1001.46
2018-01-21T00:40:41.020Z,1001.48
2018-01-21T00:41:41.027Z,1001.47
2018-01-21T00:42:41.022Z,1001.53
2018-01-21T00:43:41.024Z,1001.54
2018-01-21T00:44:41.026Z,1001.55
2018-01-21T00:45:41.010Z,1001.58
2018-01-21T00:46:40.996Z,1001.57
2018-01-21T00:47:41.003Z,1001.63
2018-01-21T00:48:41.010Z,1001.64
2018-01-21T00:49:41.008Z,1001.66
2018-01-21T00:50:40.991Z,1001.69
2018-01-21T00:51:40.984Z,1001.72
2018-01-21T00:52:40.979Z,1001.74
2018-01-21T00:53:40.976Z,1001.76
2018-01-21T00:54:40.988Z,1001.82
2018-01-21T00:55:40.969Z,1001.83
2018-01-21T00:56:40.965Z,1001.83
2018-01-21T00:57:40.966Z,1001.89
2018-01-21T00:58:40.974Z,1001.88
2018-01-21T00:59:40.964Z,1001.93
2018-01-21T01:00:40.950Z,1001.94
2018-01-21T01:01:40.936Z,1001.94
2018-01-21T01:02:40.947Z,1002.01
2018-01-21T01:03:40.931Z,1002.01
2018-01-21T01:04:40.931Z,1002.05
2018-01-21T01:05:40.931Z,1002.10
2018-01-21T01:06:40.926Z,1002.10
2018-01-21T01:07:40.917Z,1002.13
2018-01-21T01:08:40.931Z,1002.18
2018-01-21T01:09:40.914Z,1002.16
2018-01-21T01:10:40.906Z,1002.18
2018-01-21T01:11:40.917Z,1002.21
2018-01-21T01:12:40.900Z,1002.27
2018-01-21T01:13:40.897Z,1002.25
2018-01-21T01:14:40.897Z,1002.24
2018-01-21T01:15:40.883Z,1002.31
2018-01-21T01:16:40.896Z,1002.32
2018-01-21T01:17:40.926Z,1002.39
2018-01-21T01:18:40.881Z,1002.39
2018-01-21T01:19:40.878Z,1002.40
2018-01-21T01:20:40.861Z,1002.46
2018-01-21T01:21:40.873Z,1002.46
2018-01-21T01:22:40.868Z,1002.48
2018-01-21T01:23:40.858Z,1002.51
2018-01-21T01:24:40.873Z,1002.51
2018-01-21T01:25:40.850Z,1002.58
2018-01-21T01:26:40.857Z,1002.54
2018-01-21T01:27:40.846Z,1002.63
2018-01-21T01:28:40.834Z,1002.66
2018-01-21T01:29:40.840Z,1002.73
2018-01-21T01:30:40.826Z,1002.73
2018-01-21T01:31:40.828Z,1002.77
2018-01-21T01:32:40.827Z,1002.80
2018-01-21T01:33:40.828Z,1002.83
2018-01-21T01:34:40.813Z,1002.85
2018-01-21T01:35:40.819Z,1002.86
2018-01-21T01:36:40.815Z,1002.90
2018-01-21T01:37:40.807Z,1002.95
2018-01-21T01:38:40.804Z,1002.98
2018-01-21T01:39:40.817Z,1002.98
2018-01-21T01:40:40.792Z,1002.99
2018-01-21T01:41:40.795Z,1003.01
2018-01-21T01:42:40.794Z,1003.01
2018-01-21T01:43:40.777Z,1003.03
2018-01-21T01:44:40.777Z,1003.06
2018-01-21T01:45:40.775Z,1003.06
2018-01-21T01:46:40.768Z,1003.11
2018-01-21T01:47:40.768Z,1003.09
2018-01-21T01:48:40.763Z,1003.11
2018-01-21T01:49:40.771Z,1003.17
2018-01-21T01:50:40.758Z,1003.20
2018-01-21T01:51:40.748Z,1003.19
2018-01-21T01:52:40.748Z,1003.25
2018-01-21T01:53:40.743Z,1003.29
2018-01-21T01:54:40.738Z,1003.33
2018-01-21T01:55:40.733Z,1003.37
2018-01-21T01:56:40.733Z,1003.36
2018-01-21T01:57:40.726Z,1003.41
2018-01-21T01:58:40.723Z,1003.45
2018-01-21T01:59:40.728Z,1003.44
2018-01-21T02:00:40.709Z,1003.49
2018-01-21T02:01:40.712Z,1003.48
2018-01-21T02:02:40.718Z,1003.53
2018-01-21T02:03:40.703Z,1003.54
2018-01-21T02:04:40.709Z,1003.54
2018-01-21T02:05:40.685Z,1003.63
2018-01-21T02:06:40.684Z,1003.63
2018-01-21T02:07:40.695Z,1003.62
2018-01-21T02:08:40.683Z,1003.65
2018-01-21T02:09:40.681Z,1003.65
2018-01-21T02:10:40.674Z,1003.69
2018-01-21T02:11:40.667Z,1003.72
2018-01-21T02:12:40.664Z,1003.71
2018-01-21T02:13:40.650Z,1003.77
2018-01-21T02:14:40.655Z,1003.76
2018-01-21T02:15:40.655Z,1003.75
2018-01-21T02:16:40.677Z,1003.72
2018-01-21T02:17:40.652Z,1003.77
2018-01-21T02:18:40.639Z,1003.77
2018-01-21T02:19:40.649Z,1003.78
2018-01-21T02:20:40.634Z,1003.80
2018-01-21T02:21:40.629Z,1003.77
2018-01-21T02:22:40.636Z,1003.83
2018-01-21T02:23:40.618Z,1003.87
2018-01-21T02:24:40.613Z,1003.89
2018-01-21T02:25:40.614Z,1003.92
2018-01-21T02:26:40.603Z,1003.90
2018-01-21T02:27:40.615Z,1003.91
2018-01-21T02:28:40.603Z,1003.95
2018-01-21T02:29:40.604Z,1003.94
2018-01-21T02:30:40.588Z,1003.96
2018-01-21T02:31:40.595Z,1003.99
2018-01-21T02:32:40.587Z,1003.96
2018-01-21T02:33:40.579Z,1004.00
2018-01-21T02:34:40.593Z,1004.00
2018-01-21T02:35:40.568Z,1004.04
2018-01-21T02:36:40.575Z,1004.02
2018-01-21T02:37:40.575Z,1004.07
2018-01-21T02:38:40.569Z,1004.06
2018-01-21T02:39:40.559Z,1004.09
2018-01-21T02:40:40.554Z,1004.11
2018-01-21T02:41:40.550Z,1004.13
2018-01-21T02:42:40.553Z,1004.19
2018-01-21T02:43:40.548Z,1004.12
2018-01-21T02:44:40.540Z,1004.15
2018-01-21T02:45:40.541Z,1004.18
2018-01-21T02:46:40.533Z,1004.25
2018-01-21T02:47:40.560Z,1004.22
2018-01-21T02:48:40.533Z,1004.27
2018-01-21T02:49:40.516Z,1004.32
2018-01-21T02:50:40.514Z,1004.32
2018-01-21T02:51:40.520Z,1004.37
2018-01-21T02:52:40.513Z,1004.37
2018-01-21T02:53:40.514Z,1004.36
2018-01-21T02:54:40.503Z,1004.42
2018-01-21T02:55:40.491Z,1004.41
2018-01-21T02:56:40.493Z,1004.43
2018-01-21T02:57:40.522Z,1004.46
2018-01-21T02:58:40.494Z,1004.43
2018-01-21T02:59:40.480Z,1004.52
2018-01-21T03:00:40.485Z,1004.52
2018-01-21T03:01:40.488Z,1004.61
2018-01-21T03:02:40.468Z,1004.60
2018-01-21T03:03:40.490Z,1004.60
2018-01-21T03:04:40.464Z,1004.63
2018-01-21T03:05:40.464Z,1004.62
2018-01-21T03:06:40.453Z,1004.62
2018-01-21T03:07:40.471Z,1004.62
2018-01-21T03:08:40.448Z,1004.67
2018-01-21T03:09:40.447Z,1004.70
2018-01-21T03:10:40.454Z,1004.71
2018-01-21T03:11:40.443Z,1004.71
2018-01-21T03:12:40.439Z,1004.79
2018-01-21T03:13:40.425Z,1004.83
2018-01-21T03:14:40.430Z,1004.85
2018-01-21T03:15:40.430Z,1004.87
2018-01-21T03:16:40.425Z,1004.89
2018-01-21T03:17:40.410Z,1004.93
2018-01-21T03:18:40.413Z,1004.92
2018-01-21T03:19:40.405Z,1004.98
2018-01-21T03:20:40.408Z,1004.99
2018-01-21T03:21:40.396Z,1005.03
2018-01-21T03:22:40.394Z,1005.06
2018-01-21T03:23:40.392Z,1005.07
2018-01-21T03:24:40.384Z,1005.08
2018-01-21T03:25:40.379Z,1005.12
2018-01-21T03:26:40.381Z,1005.13
2018-01-21T03:27:40.374Z,1005.18
2018-01-21T03:28:40.369Z,1005.17
2018-01-21T03:29:40.365Z,1005.21
2018-01-21T03:30:40.369Z,1005.22
2018-01-21T03:31:40.360Z,1005.24
2018-01-21T03:32:40.359Z,1005.27
2018-01-21T03:33:40.350Z,1005.32
2018-01-21T03:34:40.348Z,1005.30
2018-01-21T03:35:40.339Z,1005.31
2018-01-21T03:36:40.341Z,1005.33
2018-01-21T03:37:40.349Z,1005.34
2018-01-21T03:38:40.334Z,1005.39
2018-01-21T03:39:40.333Z,1005.35
2018-01-21T03:40:40.326Z,1005.37
2018-01-21T03:41:40.324Z,1005.37
2018-01-21T03:42:40.316Z,1005.42
2018-01-21T03:43:40.301Z,1005.42
2018-01-21T03:44:40.342Z,1005.43
2018-01-21T03:45:40.304Z,1005.48
2018-01-21T03:46:40.300Z,1005.52
2018-01-21T03:47:41.229Z,1005.55
2018-01-21T03:48:40.294Z,1005.55
2018-01-21T03:49:40.284Z,1005.55
2018-01-21T03:50:40.279Z,1005.58
2018-01-21T03:51:40.284Z,1005.62
2018-01-21T03:52:40.280Z,1005.60
2018-01-21T03:53:40.274Z,1005.67
2018-01-21T03:54:40.274Z,1005.64
2018-01-21T03:55:40.261Z,1005.64
2018-01-21T03:56:40.259Z,1005.63
2018-01-21T03:57:40.254Z,1005.71
2018-01-21T03:58:40.256Z,1005.73
2018-01-21T03:59:40.245Z,1005.72
2018-01-21T04:00:40.249Z,1005.77
2018-01-21T04:01:40.249Z,1005.80
2018-01-21T04:02:40.248Z,1005.84
2018-01-21T04:03:40.221Z,1005.83
2018-01-21T04:04:40.231Z,1005.85
2018-01-21T04:05:40.225Z,1005.89
2018-01-21T04:06:40.225Z,1005.93
2018-01-21T04:07:40.217Z,1005.91
2018-01-21T04:08:40.225Z,1005.97
2018-01-21T04:09:40.208Z,1005.97
2018-01-21T04:10:40.202Z,1005.98
2018-01-21T04:11:40.196Z,1005.98
2018-01-21T04:12:40.201Z,1006.04
2018-01-21T04:13:40.186Z,1006.03
2018-01-21T04:14:40.189Z,1006.09
2018-01-21T04:15:40.192Z,1006.09
2018-01-21T04:16:40.180Z,1006.09
2018-01-21T04:17:40.171Z,1006.10
2018-01-21T04:18:40.172Z,1006.12
2018-01-21T04:19:40.169Z,1006.14
2018-01-21T04:20:40.161Z,1006.13
2018-01-21T04:21:40.161Z,1006.15
2018-01-21T04:22:40.171Z,1006.14
2018-01-21T04:23:40.162Z,1006.11
2018-01-21T04:24:40.156Z,1006.13
2018-01-21T04:25:40.147Z,1006.18
2018-01-21T04:26:40.142Z,1006.20
2018-01-21T04:27:40.136Z,1006.21
2018-01-21T04:28:40.135Z,1006.20
2018-01-21T04:29:40.127Z,1006.24
2018-01-21T04:30:40.121Z,1006.31
2018-01-21T04:31:40.126Z,1006.31
2018-01-21T04:32:40.120Z,1006.36
2018-01-21T04:33:40.120Z,1006.32
2018-01-21T04:34:40.115Z,1006.38
2018-01-21T04:35:40.120Z,1006.42
2018-01-21T04:36:40.101Z,1006.42
2018-01-21T04:37:40.102Z,1006.48
2018-01-21T04:38:40.095Z,1006.46
2018-01-21T04:39:40.091Z,1006.50
2018-01-21T04:40:40.087Z,1006.49
2018-01-21T04:41:40.085Z,1006.52
2018-01-21T04:42:40.073Z,1006.53
2018-01-21T04:43:40.076Z,1006.57
2018-01-21T04:44:40.068Z,1006.57
2018-01-21T04:45:40.052Z,1006.60
2018-01-21T04:46:40.061Z,1006.62
2018-01-21T04:47:40.083Z,1006.68
2018-01-21T04:48:40.055Z,1006.65
2018-01-21T04:49:40.062Z,1006.69
2018-01-21T04:50:40.061Z,1006.66
2018-01-21T04:51:40.040Z,1006.71
2018-01-21T04:52:40.049Z,1006.69
2018-01-21T04:53:40.042Z,1006.69
2018-01-21T04:54:40.037Z,1006.71
2018-01-21T04:55:40.028Z,1006.72
2018-01-21T04:56:40.027Z,1006.72
2018-01-21T04:57:40.022Z,1006.74
2018-01-21T04:58:40.016Z,1006.75
2018-01-21T04:59:40.018Z,1006.76
2018-01-21T05:00:40.020Z,1006.75
2018-01-21T05:01:40.006Z,1006.75
2018-01-21T05:02:40.049Z,1006.76
2018-01-21T05:03:39.996Z,1006.82
2018-01-21T05:04:39.994Z,1006.83
2018-01-21T05:05:40.753Z,1006.83
2018-01-21T05:06:39.977Z,1006.85
2018-01-21T05:07:39.982Z,1006.90
2018-01-21T05:08:39.980Z,1006.91
2018-01-21T05:09:39.970Z,1006.92
2018-01-21T05:10:39.966Z,1006.95
2018-01-21T05:11:39.962Z,1006.92
2018-01-21T05:12:39.957Z,1006.96
2018-01-21T05:13:39.970Z,1006.99
2018-01-21T05:14:39.952Z,1006.96
2018-01-21T05:15:39.958Z,1006.96
2018-01-21T05:16:39.940Z,1006.94
2018-01-21T05:17:39.944Z,1006.96
2018-01-21T05:18:39.948Z,1006.95
2018-01-21T05:19:39.931Z,1007.01
2018-01-21T05:20:39.924Z,1007.00
2018-01-21T05:21:40.258Z,1007.01
2018-01-21T05:22:39.926Z,1007.04
2018-01-21T05:23:39.922Z,1007.10
2018-01-21T05:24:39.917Z,1007.08
2018-01-21T05:25:39.920Z,1007.10
2018-01-21T05:26:39.907Z,1007.12
2018-01-21T05:27:39.903Z,1007.11
2018-01-21T05:28:39.909Z,1007.08
2018-01-21T05:29:39.893Z,1007.14
2018-01-21T05:30:39.883Z,1007.16
2018-01-21T05:31:39.873Z,1007.15
2018-01-21T05:32:39.892Z,1007.21
2018-01-21T05:33:39.880Z,1007.16
2018-01-21T05:34:39.878Z,1007.16
2018-01-21T05:35:39.868Z,1007.24
2018-01-21T05:36:39.868Z,1007.26
2018-01-21T05:37:39.865Z,1007.30
2018-01-21T05:38:39.856Z,1007.33
2018-01-21T05:39:39.853Z,1007.31
2018-01-21T05:40:39.858Z,1007.37
2018-01-21T05:41:39.851Z,1007.36
2018-01-21T05:42:39.842Z,1007.41
2018-01-21T05:43:39.842Z,1007.41
2018-01-21T05:44:39.833Z,1007.41
2018-01-21T05:45:39.832Z,1007.45
2018-01-21T05:46:39.826Z,1007.46
2018-01-21T05:47:39.824Z,1007.49
2018-01-21T05:48:39.824Z,1007.47
2018-01-21T05:49:39.819Z,1007.53
2018-01-21T05:50:39.822Z,1007.54
2018-01-21T05:51:39.804Z,1007.53
2018-01-21T05:52:39.806Z,1007.58
2018-01-21T05:53:39.802Z,1007.60
2018-01-21T05:54:39.801Z,1007.62
2018-01-21T05:55:39.791Z,1007.61
2018-01-21T05:56:39.786Z,1007.62
2018-01-21T05:57:39.786Z,1007.63
2018-01-21T05:58:39.781Z,1007.68
2018-01-21T05:59:39.776Z,1007.70
2018-01-21T06:00:39.796Z,1007.76
2018-01-21T06:01:39.777Z,1007.78
2018-01-21T06:02:39.763Z,1007.77
2018-01-21T06:03:39.753Z,1007.76
2018-01-21T06:04:39.757Z,1007.80
2018-01-21T06:05:39.743Z,1007.79
2018-01-21T06:06:39.741Z,1007.78
2018-01-21T06:07:39.758Z,1007.83
2018-01-21T06:08:39.747Z,1007.85
2018-01-21T06:09:39.750Z,1007.90
2018-01-21T06:10:39.728Z,1007.94
2018-01-21T06:11:39.728Z,1007.99
2018-01-21T06:12:39.731Z,1008.01
2018-01-21T06:13:39.726Z,1008.05
2018-01-21T06:14:39.732Z,1008.08
2018-01-21T06:15:39.709Z,1008.11
2018-01-21T06:16:39.759Z,1008.14
2018-01-21T06:17:39.713Z,1008.18
2018-01-21T06:18:39.698Z,1008.19
2018-01-21T06:19:39.707Z,1008.22
2018-01-21T06:20:39.693Z,1008.26
2018-01-21T06:21:39.683Z,1008.23
2018-01-21T06:22:39.684Z,1008.28
2018-01-21T06:23:39.677Z,1008.28
2018-01-21T06:24:39.672Z,1008.29
2018-01-21T06:25:39.669Z,1008.34
2018-01-21T06:26:39.669Z,1008.36
2018-01-21T06:27:39.673Z,1008.37
2018-01-21T06:28:39.654Z,1008.40
2018-01-21T06:29:39.670Z,1008.39
2018-01-21T06:30:39.664Z,1008.41
2018-01-21T06:31:39.647Z,1008.46
2018-01-21T06:32:39.637Z,1008.43
2018-01-21T06:33:39.639Z,1008.44
2018-01-21T06:34:39.640Z,1008.45
2018-01-21T06:35:39.630Z,1008.49
2018-01-21T06:36:39.632Z,1008.51
2018-01-21T06:37:39.626Z,1008.56
2018-01-21T06:38:39.622Z,1008.56
2018-01-21T06:39:39.617Z,1008.59
2018-01-21T06:40:39.609Z,1008.59
2018-01-21T06:41:39.604Z,1008.63
2018-01-21T06:42:39.604Z,1008.63
2018-01-21T06:43:39.592Z,1008.63
2018-01-21T06:44:39.597Z,1008.65
2018-01-21T06:45:39.603Z,1008.69
2018-01-21T06:46:39.584Z,1008.73
2018-01-21T06:47:39.579Z,1008.74
2018-01-21T06:48:39.579Z,1008.79
2018-01-21T06:49:39.573Z,1008.79
2018-01-21T06:50:39.578Z,1008.80
2018-01-21T06:51:39.569Z,1008.85
2018-01-21T06:52:39.564Z,1008.87
2018-01-21T06:53:39.571Z,1008.87
2018-01-21T06:54:40.170Z,1008.91
2018-01-21T06:55:39.553Z,1008.95
2018-01-21T06:56:39.549Z,1008.95
2018-01-21T06:57:39.558Z,1009.01
2018-01-21T06:58:39.533Z,1009.02
2018-01-21T06:59:39.547Z,1009.03
2018-01-21T07:00:39.534Z,1009.01
2018-01-21T07:01:39.530Z,1009.01
2018-01-21T07:02:39.526Z,1009.03
2018-01-21T07:03:39.537Z,1009.03
2018-01-21T07:04:39.519Z,1009.05
2018-01-21T07:05:39.508Z,1009.08
2018-01-21T07:06:39.518Z,1009.06
2018-01-21T07:07:39.508Z,1009.13
2018-01-21T07:08:39.500Z,1009.11
2018-01-21T07:09:39.498Z,1009.12
2018-01-21T07:10:39.504Z,1009.15
2018-01-21T07:11:39.495Z,1009.17
2018-01-21T07:12:39.488Z,1009.17
2018-01-21T07:13:39.476Z,1009.20
2018-01-21T07:14:39.484Z,1009.23
2018-01-21T07:15:39.475Z,1009.26
2018-01-21T07:16:39.473Z,1009.26
2018-01-21T07:17:39.473Z,1009.28
2018-01-21T07:18:39.471Z,1009.30
2018-01-21T07:19:39.464Z,1009.36
2018-01-21T07:20:39.459Z,1009.33
2018-01-21T07:21:39.464Z,1009.33
2018-01-21T07:22:39.497Z,1009.32
2018-01-21T07:23:39.450Z,1009.33
2018-01-21T07:24:39.448Z,1009.34
2018-01-21T07:25:39.438Z,1009.41
2018-01-21T07:26:39.425Z,1009.42
2018-01-21T07:27:39.430Z,1009.43
2018-01-21T07:28:39.418Z,1009.45
2018-01-21T07:29:39.416Z,1009.49
2018-01-21T07:30:39.418Z,1009.50
2018-01-21T07:31:39.424Z,1009.51
2018-01-21T07:32:39.410Z,1009.48
2018-01-21T07:33:39.411Z,1009.50
2018-01-21T07:34:39.405Z,1009.56
2018-01-21T07:35:39.400Z,1009.59
2018-01-21T07:36:39.400Z,1009.59
2018-01-21T07:37:39.394Z,1009.60
2018-01-21T07:38:39.391Z,1009.69
2018-01-21T07:39:39.394Z,1009.69
2018-01-21T07:40:39.380Z,1009.71
2018-01-21T07:41:39.375Z,1009.76
2018-01-21T07:42:39.375Z,1009.75
2018-01-21T07:43:39.370Z,1009.76
2018-01-21T07:44:39.370Z,1009.76
2018-01-21T07:45:39.360Z,1009.76
2018-01-21T07:46:39.354Z,1009.79
2018-01-21T07:47:39.361Z,1009.79
2018-01-21T07:48:39.341Z,1009.81
2018-01-21T07:49:39.345Z,1009.83
2018-01-21T07:50:39.350Z,1009.82
2018-01-21T07:51:39.346Z,1009.86
2018-01-21T07:52:39.332Z,1009.92
2018-01-21T07:53:39.329Z,1009.92
2018-01-21T07:54:39.329Z,1009.97
2018-01-21T07:55:39.340Z,1010.01
2018-01-21T07:56:39.321Z,1010.04
2018-01-21T07:57:39.321Z,1009.99
2018-01-21T07:58:39.333Z,1010.04
2018-01-21T07:59:39.310Z,1010.06
2018-01-21T08:00:39.320Z,1010.08
2018-01-21T08:01:39.305Z,1010.13
2018-01-21T08:02:39.297Z,1010.16
2018-01-21T08:03:39.299Z,1010.21
2018-01-21T08:04:39.289Z,1010.20
2018-01-21T08:05:39.284Z,1010.21
2018-01-21T08:06:39.282Z,1010.23
2018-01-21T08:07:39.296Z,1010.25
2018-01-21T08:08:39.284Z,1010.25
2018-01-21T08:09:39.266Z,1010.28
2018-01-21T08:10:39.269Z,1010.32
2018-01-21T08:11:39.297Z,1010.29
2018-01-21T08:12:39.260Z,1010.37
2018-01-21T08:13:39.250Z,1010.39
2018-01-21T08:14:39.257Z,1010.45
2018-01-21T08:15:39.267Z,1010.44
2018-01-21T08:16:39.236Z,1010.51
2018-01-21T08:17:39.246Z,1010.51
2018-01-21T08:18:39.237Z,1010.56
2018-01-21T08:19:39.251Z,1010.55
2018-01-21T08:20:39.232Z,1010.61
2018-01-21T08:21:39.307Z,1010.60
2018-01-21T08:22:39.216Z,1010.62
2018-01-21T08:23:39.212Z,1010.65
2018-01-21T08:24:39.216Z,1010.69
2018-01-21T08:25:39.214Z,1010.69
2018-01-21T08:26:39.207Z,1010.70
2018-01-21T08:27:39.201Z,1010.72
2018-01-21T08:28:39.196Z,1010.74
2018-01-21T08:29:39.205Z,1010.74
2018-01-21T08:30:39.200Z,1010.74
2018-01-21T08:31:39.191Z,1010.76
2018-01-21T08:32:39.176Z,1010.72
2018-01-21T08:33:39.171Z,1010.77
2018-01-21T08:34:39.171Z,1010.71
2018-01-21T08:35:39.168Z,1010.77
2018-01-21T08:36:39.166Z,1010.78
2018-01-21T08:37:39.172Z,1010.81
2018-01-21T08:38:39.161Z,1010.79
2018-01-21T08:39:39.156Z,1010.78
2018-01-21T08:40:39.146Z,1010.82
2018-01-21T08:41:39.142Z,1010.83
2018-01-21T08:42:39.135Z,1010.83
2018-01-21T08:43:39.142Z,1010.81
2018-01-21T08:44:39.131Z,1010.83
2018-01-21T08:45:39.124Z,1010.82
2018-01-21T08:46:39.127Z,1010.82
2018-01-21T08:47:39.121Z,1010.85
2018-01-21T08:48:39.122Z,1010.85
2018-01-21T08:49:39.111Z,1010.90
2018-01-21T08:50:39.115Z,1010.89
2018-01-21T08:51:39.121Z,1010.89
2018-01-21T08:52:39.103Z,1010.89
2018-01-21T08:53:39.091Z,1010.88
2018-01-21T08:54:39.102Z,1010.94
2018-01-21T08:55:39.082Z,1010.93
2018-01-21T08:56:39.091Z,1010.95
2018-01-21T08:57:39.076Z,1010.95
2018-01-21T08:58:39.085Z,1010.95
2018-01-21T08:59:39.078Z,1010.97
2018-01-21T09:00:39.066Z,1010.98
2018-01-21T09:01:39.070Z,1010.98
2018-01-21T09:02:39.070Z,1011.04
2018-01-21T09:03:39.059Z,1011.02
2018-01-21T09:04:39.065Z,1011.06
2018-01-21T09:05:39.051Z,1011.05
2018-01-21T09:06:39.042Z,1011.04
2018-01-21T09:07:39.049Z,1011.02
2018-01-21T09:08:39.056Z,1011.05
2018-01-21T09:09:39.039Z,1011.03
2018-01-21T09:10:39.055Z,1011.04
2018-01-21T09:11:39.027Z,1011.00
2018-01-21T09:12:39.023Z,1011.08
2018-01-21T09:13:39.018Z,1011.08
2018-01-21T09:14:39.012Z,1011.12
2018-01-21T09:15:39.008Z,1011.11
2018-01-21T09:16:39.011Z,1011.10
2018-01-21T09:17:39.001Z,1011.14
2018-01-21T09:18:38.997Z,1011.14
2018-01-21T09:19:38.994Z,1011.15
2018-01-21T09:20:38.987Z,1011.15
2018-01-21T09:21:38.986Z,1011.16
2018-01-21T09:22:38.981Z,1011.15
2018-01-21T09:23:38.974Z,1011.22
2018-01-21T09:24:38.982Z,1011.20
2018-01-21T09:25:38.973Z,1011.21
2018-01-21T09:26:38.977Z,1011.26
2018-01-21T09:27:38.968Z,1011.24
2018-01-21T09:28:38.955Z,1011.30
2018-01-21T09:29:38.961Z,1011.28
2018-01-21T09:30:38.950Z,1011.32
2018-01-21T09:31:38.957Z,1011.29
2018-01-21T09:32:38.930Z,1011.32
2018-01-21T09:33:38.938Z,1011.31
2018-01-21T09:34:38.946Z,1011.33
2018-01-21T09:35:38.933Z,1011.37
2018-01-21T09:36:38.956Z,1011.34
2018-01-21T09:37:38.923Z,1011.36
2018-01-21T09:38:38.924Z,1011.36
2018-01-21T09:39:38.921Z,1011.40
2018-01-21T09:40:38.931Z,1011.35
2018-01-21T09:41:38.910Z,1011.41
2018-01-21T09:42:38.907Z,1011.40
2018-01-21T09:43:38.904Z,1011.41
2018-01-21T09:44:38.907Z,1011.46
2018-01-21T09:45:38.889Z,1011.44
2018-01-21T09:46:38.892Z,1011.47
2018-01-21T09:47:38.882Z,1011.45
2018-01-21T09:48:38.887Z,1011.43
2018-01-21T09:49:38.884Z,1011.47
2018-01-21T09:50:38.908Z,1011.47
2018-01-21T09:51:38.873Z,1011.49
2018-01-21T09:52:38.865Z,1011.52
2018-01-21T09:53:38.859Z,1011.58
2018-01-21T09:54:38.866Z,1011.56
2018-01-21T09:55:38.862Z,1011.57
2018-01-21T09:56:38.848Z,1011.63
2018-01-21T09:57:38.839Z,1011.66
2018-01-21T09:58:38.832Z,1011.75
2018-01-21T09:59:38.858Z,1011.74
2018-01-21T10:00:38.828Z,1011.78
2018-01-21T10:01:38.829Z,1011.78
2018-01-21T10:02:38.834Z,1011.82
2018-01-21T10:03:38.839Z,1011.83
2018-01-21T10:04:38.829Z,1011.82
2018-01-21T10:05:38.813Z,1011.87
2018-01-21T10:06:38.798Z,1011.88
2018-01-21T10:07:38.809Z,1011.94
2018-01-21T10:08:38.814Z,1011.96
2018-01-21T10:09:38.803Z,1011.96
2018-01-21T10:10:38.793Z,1011.99
2018-01-21T10:11:38.785Z,1012.02
2018-01-21T10:12:38.793Z,1012.06
2018-01-21T10:13:38.804Z,1012.05
2018-01-21T10:14:38.819Z,1012.05
2018-01-21T10:15:38.780Z,1012.01
2018-01-21T10:16:38.799Z,1012.05
2018-01-21T10:17:38.789Z,1012.05
2018-01-21T10:18:38.778Z,1012.03
2018-01-21T10:19:38.762Z,1012.01
2018-01-21T10:20:38.753Z,1011.97
2018-01-21T10:21:38.762Z,1012.03
2018-01-21T10:22:38.768Z,1012.08
2018-01-21T10:23:38.744Z,1012.04
2018-01-21T10:24:38.734Z,1012.07
2018-01-21T10:25:38.738Z,1012.10
2018-01-21T10:26:38.734Z,1012.09
2018-01-21T10:27:38.766Z,1012.15
2018-01-21T10:28:38.743Z,1012.19
2018-01-21T10:29:38.726Z,1012.20
2018-01-21T10:30:38.715Z,1012.16
2018-01-21T10:31:38.727Z,1012.15
2018-01-21T10:32:38.726Z,1012.21
2018-01-21T10:33:38.742Z,1012.20
2018-01-21T10:34:38.702Z,1012.25
2018-01-21T10:35:38.697Z,1012.28
2018-01-21T10:36:38.693Z,1012.31
2018-01-21T10:37:38.683Z,1012.33
2018-01-21T10:38:38.684Z,1012.33
2018-01-21T10:39:38.708Z,1012.37
2018-01-21T10:40:38.687Z,1012.33
2018-01-21T10:41:38.667Z,1012.31
2018-01-21T10:42:38.664Z,1012.35
2018-01-21T10:43:38.675Z,1012.36
2018-01-21T10:44:38.660Z,1012.39
2018-01-21T10:45:38.655Z,1012.38
2018-01-21T10:46:38.649Z,1012.40
2018-01-21T10:47:38.650Z,1012.41
2018-01-21T10:48:38.663Z,1012.37
2018-01-21T10:49:38.641Z,1012.39
2018-01-21T10:50:38.648Z,1012.39
2018-01-21T10:51:38.640Z,1012.44
2018-01-21T10:52:38.640Z,1012.45
2018-01-21T10:53:38.624Z,1012.49
2018-01-21T10:54:38.623Z,1012.49
2018-01-21T10:55:38.640Z,1012.50
2018-01-21T10:56:38.617Z,1012.48
2018-01-21T10:57:38.614Z,1012.46
2018-01-21T10:58:38.594Z,1012.45
2018-01-21T10:59:38.597Z,1012.46
2018-01-21T11:00:38.616Z,1012.49
2018-01-21T11:01:38.589Z,1012.47
2018-01-21T11:02:38.598Z,1012.46
2018-01-21T11:03:38.580Z,1012.49
2018-01-21T11:04:38.572Z,1012.52
2018-01-21T11:05:38.576Z,1012.48
2018-01-21T11:06:38.571Z,1012.47
2018-01-21T11:07:38.563Z,1012.49
2018-01-21T11:08:38.584Z,1012.49
2018-01-21T11:09:38.571Z,1012.50
2018-01-21T11:10:38.561Z,1012.53
2018-01-21T11:11:38.559Z,1012.52
2018-01-21T11:12:38.550Z,1012.53
2018-01-21T11:13:38.558Z,1012.57
2018-01-21T11:14:38.555Z,1012.54
2018-01-21T11:15:38.585Z,1012.62
2018-01-21T11:16:38.532Z,1012.61
2018-01-21T11:17:38.545Z,1012.54
2018-01-21T11:18:38.540Z,1012.51
2018-01-21T11:19:38.529Z,1012.49
2018-01-21T11:20:38.535Z,1012.46
2018-01-21T11:21:38.519Z,1012.48
2018-01-21T11:22:38.516Z,1012.50
2018-01-21T11:23:38.502Z,1012.53
2018-01-21T11:24:38.506Z,1012.52
2018-01-21T11:25:38.513Z,1012.48
2018-01-21T11:26:38.505Z,1012.50
2018-01-21T11:27:38.512Z,1012.52
2018-01-21T11:28:38.494Z,1012.53
2018-01-21T11:29:38.503Z,1012.50
2018-01-21T11:30:38.515Z,1012.51
2018-01-21T11:31:38.482Z,1012.51
2018-01-21T11:32:38.480Z,1012.50
2018-01-21T11:33:38.471Z,1012.53
2018-01-21T11:34:38.503Z,1012.51
2018-01-21T11:35:38.474Z,1012.56
2018-01-21T11:36:38.491Z,1012.51
2018-01-21T11:37:38.447Z,1012.52
2018-01-21T11:38:38.449Z,1012.49
2018-01-21T11:39:38.465Z,1012.50
2018-01-21T11:40:38.454Z,1012.48
2018-01-21T11:41:38.463Z,1012.51
2018-01-21T11:42:38.456Z,1012.56
2018-01-21T11:43:38.450Z,1012.53
2018-01-21T11:44:38.441Z,1012.53
2018-01-21T11:45:38.427Z,1012.47
2018-01-21T11:46:38.419Z,1012.47
2018-01-21T11:47:38.431Z,1012.50
2018-01-21T11:48:38.406Z,1012.46
2018-01-21T11:49:38.427Z,1012.44
2018-01-21T11:50:38.411Z,1012.44
2018-01-21T11:51:38.416Z,1012.42
2018-01-21T11:52:38.396Z,1012.39
2018-01-21T11:53:38.397Z,1012.38
2018-01-21T11:54:38.416Z,1012.39
2018-01-21T11:55:38.387Z,1012.38
2018-01-21T11:56:38.411Z,1012.42
2018-01-21T11:57:38.375Z,1012.41
2018-01-21T11:58:38.392Z,1012.42
2018-01-21T11:59:38.377Z,1012.46
2018-01-21T12:00:38.370Z,1012.45
2018-01-21T12:01:38.373Z,1012.47
2018-01-21T12:02:38.379Z,1012.45
2018-01-21T12:03:38.370Z,1012.43
2018-01-21T12:04:38.353Z,1012.44
2018-01-21T12:05:38.351Z,1012.45